Time;durP1;ratioP1;P1;durP2;ratioP2;P2;SDS_P1;SDS_P2;PMS_P1;PMS_P2;Temp;Humidity;BMP_temperature;BMP_pressure;BME280_temperature;BME280_humidity;BME280_pressure;Samples;Min_cycle;Max_cycle;Signal;HPM_P1;HPM_P2
2021/08/10 00:01:15;;;;;;;4.55;2.20;;;17.50;99.90;;;;;;4153706;28;20509;-72
2021/08/10 00:03:16;;;;;;;4.18;2.20;;;17.40;99.90;;;;;;4157342;28;20465;-73
2021/08/10 00:05:16;;;;;;;4.28;2.25;;;17.40;99.90;;;;;;4157533;28;20045;-73
2021/08/10 00:07:17;;;;;;;6.63;2.47;;;17.40;99.90;;;;;;4157414;28;20026;-72
2021/08/10 00:09:17;;;;;;;5.13;2.20;;;17.30;99.90;;;;;;4157550;28;20426;-72
2021/08/10 00:11:19;;;;;;;5.88;2.42;;;17.30;99.90;;;;;;4158151;28;20474;-73
2021/08/10 00:13:21;;;;;;;5.10;2.40;;;17.30;99.90;;;;;;4144960;28;20041;-73
2021/08/10 00:15:22;;;;;;;5.53;2.10;;;17.40;99.90;;;;;;4134800;28;20384;-73
2021/08/10 00:17:23;;;;;;;5.13;2.35;;;17.30;99.90;;;;;;4132329;28;20037;-72
2021/08/10 00:19:23;;;;;;;3.00;1.73;;;17.30;99.90;;;;;;4131650;28;20026;-72
2021/08/10 00:21:24;;;;;;;4.55;2.00;;;17.30;99.90;;;;;;4120480;28;20042;-73
2021/08/10 00:23:24;;;;;;;4.80;2.42;;;17.30;99.90;;;;;;4139534;28;20228;-72
2021/08/10 00:25:26;;;;;;;3.03;1.80;;;17.30;99.90;;;;;;4135324;28;20037;-73
2021/08/10 00:27:27;;;;;;;5.13;2.17;;;17.30;99.90;;;;;;4137172;28;20026;-72
2021/08/10 00:29:28;;;;;;;4.25;2.28;;;17.30;99.90;;;;;;4144176;28;20064;-72
2021/08/10 00:31:29;;;;;;;8.27;2.58;;;17.30;99.90;;;;;;4126559;28;20062;-73
2021/08/10 00:33:29;;;;;;;3.28;1.88;;;17.30;99.90;;;;;;4144406;28;20486;-72
2021/08/10 00:35:30;;;;;;;6.20;2.67;;;17.30;99.90;;;;;;4136311;28;20495;-72
2021/08/10 00:37:32;;;;;;;4.00;2.15;;;17.20;99.90;;;;;;4136527;28;20073;-72
2021/08/10 00:39:34;;;;;;;2.95;2.00;;;17.20;99.90;;;;;;4140963;28;20030;-72
2021/08/10 00:41:35;;;;;;;4.00;2.00;;;17.20;99.90;;;;;;4136042;28;20118;-73
2021/08/10 00:43:38;;;;;;;3.13;2.00;;;17.20;99.90;;;;;;4143883;28;20102;-72
2021/08/10 00:45:38;;;;;;;5.47;2.38;;;17.20;99.90;;;;;;4140205;28;20093;-72
2021/08/10 00:47:40;;;;;;;3.22;1.80;;;17.20;99.90;;;;;;4136160;28;20053;-72
2021/08/10 00:49:40;;;;;;;5.60;2.75;;;17.30;99.90;;;;;;4140011;28;20053;-71
2021/08/10 00:51:41;;;;;;;3.10;2.10;;;17.20;99.90;;;;;;4137848;28;20035;-70
2021/08/10 00:53:43;;;;;;;4.40;2.17;;;17.20;99.90;;;;;;4139496;28;20045;-70
2021/08/10 00:55:43;;;;;;;4.07;2.30;;;17.20;99.90;;;;;;4144172;28;20041;-70
2021/08/10 00:57:44;;;;;;;4.85;2.50;;;17.20;99.90;;;;;;4136117;28;20441;-70
2021/08/10 00:59:44;;;;;;;4.72;2.22;;;17.20;99.90;;;;;;4139816;28;20031;-70
2021/08/10 01:01:45;;;;;;;5.07;2.20;;;17.20;99.90;;;;;;4134470;28;20467;-72
2021/08/10 01:03:46;;;;;;;4.15;2.03;;;17.20;99.90;;;;;;4139626;28;20149;-72
2021/08/10 01:05:48;;;;;;;4.30;2.42;;;17.20;99.90;;;;;;4136184;28;20049;-72
2021/08/10 01:07:57;;;;;;;2.85;1.80;;;17.20;99.90;;;;;;4139364;28;20047;-72
2021/08/10 01:10:19;;;;;;;3.13;1.90;;;17.20;99.90;;;;;;4117145;28;20072;-72
2021/08/10 01:12:28;;;;;;;5.82;1.88;;;17.20;99.90;;;;;;4152710;28;20026;-72
2021/08/10 01:15:07;;;;;;;4.82;2.22;;;17.20;99.90;;;;;;4150834;28;20038;-73
2021/08/10 01:17:15;;;;;;;2.90;1.90;;;17.20;99.90;;;;;;4173846;28;20033;-73
2021/08/10 01:19:41;;;;;;;3.45;2.08;;;17.20;99.90;;;;;;4135761;28;20029;-72
2021/08/10 01:21:49;;;;;;;6.85;2.45;;;17.20;99.90;;;;;;4138231;28;20395;-72
2021/08/10 01:24:03;;;;;;;3.05;2.00;;;17.10;99.90;;;;;;4147060;28;20091;-72
2021/08/10 01:26:19;;;;;;;5.18;1.92;;;17.20;99.90;;;;;;4143203;28;20034;-70
2021/08/10 01:28:37;;;;;;;4.82;2.17;;;17.20;99.90;;;;;;4136477;28;20033;-70
2021/08/10 01:31:05;;;;;;;3.80;2.33;;;17.20;99.90;;;;;;4165815;28;20037;-70
2021/08/10 01:33:06;;;;;;;5.07;1.60;;;17.10;99.90;;;;;;4142911;28;20036;-70
2021/08/10 01:35:08;;;;;;;3.97;2.08;;;17.20;99.90;;;;;;4141389;28;20038;-71
2021/08/10 01:37:13;;;;;;;4.63;1.92;;;17.20;99.90;;;;;;4143252;28;20030;-70
2021/08/10 01:39:15;;;;;;;6.00;2.10;;;17.20;99.90;;;;;;4135174;28;20161;-70
2021/08/10 01:41:19;;;;;;;3.83;1.87;;;17.20;99.90;;;;;;4133992;28;20478;-70
2021/08/10 01:43:21;;;;;;;4.35;2.13;;;17.20;99.90;;;;;;4135219;28;20269;-70
2021/08/10 01:45:22;;;;;;;5.20;2.05;;;17.20;99.90;;;;;;4141275;28;20121;-70
2021/08/10 01:47:23;;;;;;;5.15;2.25;;;17.20;99.90;;;;;;4141680;28;20542;-70
2021/08/10 01:49:26;;;;;;;3.50;1.90;;;17.20;99.90;;;;;;4142670;28;20520;-70
2021/08/10 01:51:28;;;;;;;3.20;1.88;;;17.20;99.90;;;;;;4139942;28;20356;-70
2021/08/10 01:53:30;;;;;;;4.18;2.00;;;17.20;99.90;;;;;;4137188;28;20084;-70
2021/08/10 01:55:30;;;;;;;4.80;2.30;;;17.10;99.90;;;;;;4135134;28;20473;-71
2021/08/10 01:57:31;;;;;;;5.18;2.20;;;17.10;99.90;;;;;;4133753;28;20109;-70
2021/08/10 01:59:32;;;;;;;3.17;1.60;;;17.10;99.90;;;;;;4142107;28;20038;-70
2021/08/10 02:01:38;;;;;;;2.92;1.80;;;17.10;99.90;;;;;;4134960;28;20773;-72
2021/08/10 02:03:39;;;;;;;2.22;1.90;;;17.10;99.90;;;;;;4155789;28;20065;-73
2021/08/10 02:05:43;;;;;;;3.47;2.05;;;17.10;99.90;;;;;;4158972;28;20092;-72
2021/08/10 02:07:44;;;;;;;5.70;2.08;;;17.10;99.90;;;;;;4159412;28;20134;-72
2021/08/10 02:09:45;;;;;;;3.75;2.00;;;17.10;99.90;;;;;;4158790;28;20037;-72
2021/08/10 02:11:47;;;;;;;3.42;2.05;;;17.10;99.90;;;;;;4157615;28;20469;-72
2021/08/10 02:13:50;;;;;;;7.68;2.58;;;17.10;99.90;;;;;;4159210;28;20037;-73
2021/08/10 02:15:51;;;;;;;;;;;17.10;99.90;;;;;;4159273;28;20136;-72
2021/08/10 02:17:51;;;;;;;4.03;1.92;;;17.10;99.90;;;;;;4159130;28;19909;-73
2021/08/10 02:19:52;;;;;;;3.35;1.60;;;17.10;99.90;;;;;;4158783;28;20033;-72
2021/08/10 02:22:00;;;;;;;3.28;1.75;;;17.10;99.90;;;;;;4156886;28;20041;-72
2021/08/10 02:24:08;;;;;;;4.63;2.20;;;17.20;99.90;;;;;;4159301;28;20508;-73
2021/08/10 02:26:09;;;;;;;4.38;2.10;;;17.20;99.90;;;;;;4158532;28;20041;-72
2021/08/10 02:28:13;;;;;;;3.60;1.58;;;17.20;99.90;;;;;;4158592;28;20045;-72
2021/08/10 02:30:18;;;;;;;6.95;2.25;;;17.20;99.90;;;;;;4150492;28;20032;-72
2021/08/10 02:32:26;;;;;;;4.68;2.00;;;17.20;99.90;;;;;;4158252;28;20073;-72
2021/08/10 02:34:27;;;;;;;4.03;2.15;;;17.10;99.90;;;;;;4158696;28;20404;-73
2021/08/10 02:36:30;;;;;;;4.43;1.90;;;17.20;99.90;;;;;;4159028;28;20025;-72
2021/08/10 02:38:33;;;;;;;4.88;1.80;;;17.10;99.90;;;;;;4158408;28;20030;-72
2021/08/10 02:40:36;;;;;;;5.75;2.25;;;17.10;99.90;;;;;;4157013;28;20034;-72
2021/08/10 02:42:38;;;;;;;5.38;2.05;;;17.10;99.90;;;;;;4158564;28;20022;-72
2021/08/10 02:44:43;;;;;;;2.55;1.75;;;17.10;99.90;;;;;;4157879;28;20381;-72
2021/08/10 02:46:44;;;;;;;5.90;2.75;;;17.10;99.90;;;;;;4157212;28;20125;-73
2021/08/10 02:48:44;;;;;;;3.97;2.38;;;17.10;99.90;;;;;;4157651;28;20041;-73
2021/08/10 02:50:47;;;;;;;3.13;2.08;;;17.10;99.90;;;;;;4156382;28;20063;-72
2021/08/10 02:52:48;;;;;;;3.53;2.00;;;17.00;99.90;;;;;;4158735;28;20122;-72
2021/08/10 02:54:49;;;;;;;3.72;2.30;;;17.00;99.90;;;;;;4158406;28;20118;-73
2021/08/10 02:56:56;;;;;;;5.13;2.05;;;17.00;99.90;;;;;;4158934;28;20144;-72
2021/08/10 02:59:18;;;;;;;7.85;2.78;;;16.90;99.90;;;;;;4157515;28;20544;-73
2021/08/10 03:01:25;;;;;;;6.80;2.65;;;16.90;99.90;;;;;;4156115;28;20080;-72
2021/08/10 03:03:29;;;;;;;5.68;2.45;;;16.90;99.90;;;;;;4158166;28;20550;-72
2021/08/10 03:05:32;;;;;;;3.53;2.25;;;16.90;99.90;;;;;;4158449;28;20080;-72
2021/08/10 03:07:34;;;;;;;12.93;3.10;;;16.90;99.90;;;;;;4157024;28;20482;-72
2021/08/10 03:09:36;;;;;;;4.78;2.33;;;16.90;99.90;;;;;;4158469;28;20038;-72
2021/08/10 03:11:42;;;;;;;4.57;3.07;;;16.90;99.90;;;;;;4156291;28;20517;-72
2021/08/10 03:13:45;;;;;;;5.30;2.70;;;16.90;99.90;;;;;;4157762;28;20490;-72
2021/08/10 03:15:48;;;;;;;5.55;3.10;;;16.80;99.90;;;;;;4156283;28;20494;-72
2021/08/10 03:17:53;;;;;;;4.53;2.60;;;16.90;99.90;;;;;;4158152;28;20037;-72
2021/08/10 03:19:57;;;;;;;5.93;3.30;;;16.80;99.90;;;;;;4158460;28;20033;-72
2021/08/10 03:21:58;;;;;;;6.97;2.97;;;16.80;99.90;;;;;;4157889;28;20463;-72
2021/08/10 03:24:02;;;;;;;5.70;3.15;;;16.80;99.90;;;;;;4153333;28;21237;-72
2021/08/10 03:26:04;;;;;;;5.70;3.08;;;16.80;99.90;;;;;;4158125;28;20504;-72
2021/08/10 03:28:06;;;;;;;5.03;3.00;;;16.70;99.90;;;;;;4159234;28;20029;-72
2021/08/10 03:30:08;;;;;;;9.38;3.20;;;16.80;99.90;;;;;;4137628;28;20426;-72
2021/08/10 03:32:09;;;;;;;7.15;3.33;;;16.80;99.90;;;;;;4160816;28;20036;-72
2021/08/10 03:34:10;;;;;;;9.02;3.70;;;16.80;99.90;;;;;;4156322;28;20417;-70
2021/08/10 03:36:13;;;;;;;7.17;3.20;;;16.70;99.90;;;;;;4157379;28;20095;-70
2021/08/10 03:38:14;;;;;;;7.15;3.35;;;16.70;99.90;;;;;;4181200;28;20701;-70
2021/08/10 03:40:15;;;;;;;6.25;3.50;;;16.70;99.90;;;;;;4157404;28;20037;-70
2021/08/10 03:42:16;;;;;;;7.60;3.30;;;16.70;99.90;;;;;;4155773;28;20053;-72
2021/08/10 03:44:18;;;;;;;7.20;3.88;;;16.60;99.90;;;;;;4164519;28;20441;-72
2021/08/10 03:46:19;;;;;;;6.72;3.13;;;16.70;99.90;;;;;;4160851;28;20030;-72
2021/08/10 03:48:21;;;;;;;7.20;3.88;;;16.60;99.90;;;;;;4141463;28;20042;-72
2021/08/10 03:50:23;;;;;;;8.27;4.35;;;16.60;99.90;;;;;;4140051;28;20038;-72
2021/08/10 03:52:24;;;;;;;7.20;3.60;;;16.60;99.90;;;;;;4138578;28;20554;-72
2021/08/10 03:54:24;;;;;;;8.27;4.07;;;16.60;99.90;;;;;;4139776;28;20088;-72
2021/08/10 03:56:26;;;;;;;5.35;3.53;;;16.60;99.90;;;;;;4137967;28;20367;-72
2021/08/10 03:58:30;;;;;;;7.13;3.55;;;16.60;99.90;;;;;;4140909;28;20120;-72
2021/08/10 04:00:35;;;;;;;8.85;4.32;;;16.60;99.90;;;;;;4135641;28;20050;-72
2021/08/10 04:02:36;;;;;;;8.63;4.13;;;16.50;99.90;;;;;;4135834;28;20030;-72
2021/08/10 04:04:39;;;;;;;6.80;4.03;;;16.60;99.90;;;;;;4136784;28;20037;-72
2021/08/10 04:06:40;;;;;;;6.60;3.67;;;16.60;99.90;;;;;;4143024;28;20042;-72
2021/08/10 04:08:42;;;;;;;6.82;3.88;;;16.60;99.90;;;;;;4142887;28;20077;-72
2021/08/10 04:10:44;;;;;;;6.18;3.75;;;16.60;99.90;;;;;;4142384;28;20035;-72
2021/08/10 04:12:45;;;;;;;8.10;4.32;;;16.60;99.90;;;;;;4136217;28;20038;-72
2021/08/10 04:14:45;;;;;;;8.13;4.25;;;16.60;99.90;;;;;;4136802;28;20172;-72
2021/08/10 04:17:05;;;;;;;6.57;3.40;;;16.60;99.90;;;;;;4139990;28;20040;-72
2021/08/10 04:19:08;;;;;;;6.70;3.97;;;16.70;99.90;;;;;;4136193;28;20038;-72
2021/08/10 04:21:08;;;;;;;7.85;4.28;;;16.70;99.90;;;;;;4138903;28;20117;-72
2021/08/10 04:23:09;;;;;;;7.30;4.32;;;16.70;99.90;;;;;;4122936;28;20442;-72
2021/08/10 04:25:10;;;;;;;6.50;3.78;;;16.70;99.90;;;;;;4144437;28;20140;-72
2021/08/10 04:27:12;;;;;;;7.28;3.90;;;16.70;99.90;;;;;;4136459;28;20383;-72
2021/08/10 04:29:15;;;;;;;17.23;4.50;;;16.70;99.90;;;;;;4118453;28;20038;-73
2021/08/10 04:31:16;;;;;;;11.23;4.35;;;16.70;99.90;;;;;;4118484;28;20026;-73
2021/08/10 04:33:17;;;;;;;5.65;3.67;;;16.60;99.90;;;;;;4143216;28;20445;-73
2021/08/10 04:35:17;;;;;;;10.00;4.22;;;16.60;99.90;;;;;;4135446;28;20040;-70
2021/08/10 04:37:18;;;;;;;7.45;4.53;;;16.50;99.90;;;;;;4143145;28;20038;-70
2021/08/10 04:39:19;;;;;;;8.07;4.63;;;16.50;99.90;;;;;;4144040;28;20037;-70
2021/08/10 04:41:19;;;;;;;7.75;4.30;;;16.50;99.90;;;;;;4141857;28;20549;-72
2021/08/10 04:43:20;;;;;;;10.43;4.40;;;16.50;99.90;;;;;;4133651;28;20398;-72
2021/08/10 04:45:21;;;;;;;6.70;4.03;;;16.40;99.90;;;;;;4136573;28;20105;-73
2021/08/10 04:47:22;;;;;;;8.05;4.20;;;16.40;99.90;;;;;;4139097;28;20026;-72
2021/08/10 04:49:22;;;;;;;6.90;3.72;;;16.40;99.90;;;;;;4136950;28;20044;-73
2021/08/10 04:51:24;;;;;;;6.95;4.05;;;16.40;99.90;;;;;;4142813;28;20096;-73
2021/08/10 04:53:24;;;;;;;7.13;4.25;;;16.40;99.90;;;;;;4134634;28;20026;-73
2021/08/10 04:55:25;;;;;;;6.05;3.67;;;16.40;99.90;;;;;;4135367;28;20058;-73
2021/08/10 04:57:26;;;;;;;8.10;4.03;;;16.40;99.90;;;;;;4138597;28;20045;-73
2021/08/10 04:59:27;;;;;;;5.97;3.70;;;16.30;99.90;;;;;;4134708;28;20046;-72
2021/08/10 05:01:28;;;;;;;7.25;3.97;;;16.30;99.90;;;;;;4131916;28;20530;-72
2021/08/10 05:03:29;;;;;;;6.53;3.90;;;16.40;99.90;;;;;;4138188;28;20029;-72
2021/08/10 05:05:29;;;;;;;8.70;4.18;;;16.30;99.90;;;;;;4141908;28;20030;-72
2021/08/10 05:07:30;;;;;;;7.45;3.65;;;16.30;99.90;;;;;;4136082;28;20057;-73
2021/08/10 05:09:33;;;;;;;6.18;3.83;;;16.40;99.90;;;;;;4135792;28;20034;-73
2021/08/10 05:11:35;;;;;;;10.27;3.72;;;16.40;99.90;;;;;;4134276;28;20363;-73
2021/08/10 05:13:35;;;;;;;5.82;3.33;;;16.40;99.90;;;;;;4132907;28;20030;-73
2021/08/10 05:15:36;;;;;;;7.95;3.50;;;16.40;99.90;;;;;;4133859;28;20498;-73
2021/08/10 05:17:37;;;;;;;5.97;3.75;;;16.40;99.90;;;;;;4137876;28;20501;-73
2021/08/10 05:19:37;;;;;;;7.35;4.07;;;16.40;99.90;;;;;;4134343;28;20030;-73
2021/08/10 05:21:38;;;;;;;6.65;3.63;;;16.40;99.90;;;;;;4135462;28;20030;-73
2021/08/10 05:23:39;;;;;;;7.05;4.03;;;16.40;99.90;;;;;;4130407;28;20280;-73
2021/08/10 05:25:39;;;;;;;6.40;3.53;;;16.40;99.90;;;;;;4142128;28;20065;-73
2021/08/10 05:27:40;;;;;;;5.90;3.60;;;16.40;99.90;;;;;;4136349;28;20132;-73
2021/08/10 05:29:41;;;;;;;7.28;4.50;;;16.40;99.90;;;;;;4141922;28;20066;-72
2021/08/10 05:31:42;;;;;;;7.70;4.05;;;16.40;99.90;;;;;;4143216;28;20083;-72
2021/08/10 05:33:43;;;;;;;5.50;3.33;;;16.40;99.90;;;;;;4143604;28;20037;-72
2021/08/10 05:35:44;;;;;;;7.68;3.90;;;16.40;99.90;;;;;;4143679;28;20037;-72
2021/08/10 05:37:45;;;;;;;6.35;3.90;;;16.40;99.90;;;;;;4143440;28;20045;-73
2021/08/10 05:39:45;;;;;;;7.43;3.95;;;16.40;99.90;;;;;;4143885;28;20034;-72
2021/08/10 05:41:46;;;;;;;6.78;3.75;;;16.40;99.90;;;;;;4142099;28;20556;-73
2021/08/10 05:43:47;;;;;;;5.97;3.28;;;16.40;99.90;;;;;;4183259;28;20385;-73
2021/08/10 05:45:47;;;;;;;5.82;3.20;;;16.40;99.90;;;;;;4146880;28;20490;-73
2021/08/10 05:47:48;;;;;;;7.22;3.45;;;16.40;99.90;;;;;;4143404;28;20045;-72
2021/08/10 05:49:48;;;;;;;6.13;3.75;;;16.40;99.90;;;;;;4152096;28;20120;-72
2021/08/10 05:51:49;;;;;;;5.18;3.40;;;16.40;99.90;;;;;;4158866;28;20113;-73
2021/08/10 05:53:50;;;;;;;5.60;3.33;;;16.50;99.90;;;;;;4156280;28;20034;-73
2021/08/10 05:55:50;;;;;;;5.68;3.08;;;16.50;99.90;;;;;;4159889;28;20044;-73
2021/08/10 05:57:51;;;;;;;4.82;3.15;;;16.50;99.90;;;;;;4159748;28;20127;-73
2021/08/10 05:59:52;;;;;;;7.85;3.38;;;16.50;99.90;;;;;;4153389;28;20038;-73
2021/08/10 06:01:52;;;;;;;6.82;3.95;;;16.50;99.90;;;;;;4143074;28;20397;-73
2021/08/10 06:03:53;;;;;;;6.30;3.58;;;16.60;99.90;;;;;;4171960;28;20143;-73
2021/08/10 06:05:53;;;;;;;8.02;3.63;;;16.60;99.90;;;;;;4157855;28;20045;-73
2021/08/10 06:07:54;;;;;;;4.80;2.75;;;16.60;99.90;;;;;;4143563;28;20224;-73
2021/08/10 06:09:54;;;;;;;5.60;3.15;;;16.60;99.90;;;;;;4143057;28;20478;-73
2021/08/10 06:11:55;;;;;;;5.35;3.22;;;16.70;99.90;;;;;;4143089;28;20086;-73
2021/08/10 06:13:56;;;;;;;5.18;3.05;;;16.70;99.90;;;;;;4143073;28;20065;-73
2021/08/10 06:15:56;;;;;;;6.40;3.55;;;16.80;99.90;;;;;;4143025;28;20034;-73
2021/08/10 06:17:57;;;;;;;6.03;3.47;;;16.70;99.90;;;;;;4142792;28;20041;-73
2021/08/10 06:19:58;;;;;;;4.57;3.20;;;16.80;99.90;;;;;;4142380;28;20038;-73
2021/08/10 06:21:59;;;;;;;5.70;3.40;;;16.80;99.90;;;;;;4141934;28;20041;-73
2021/08/10 06:24:00;;;;;;;5.20;3.33;;;16.90;99.90;;;;;;4142250;28;20045;-73
2021/08/10 06:26:01;;;;;;;5.93;3.55;;;16.90;99.90;;;;;;4142020;28;20504;-73
2021/08/10 06:28:01;;;;;;;6.07;3.50;;;17.00;99.90;;;;;;4140985;28;20057;-73
2021/08/10 06:30:03;;;;;;;5.45;3.50;;;17.00;99.90;;;;;;4141490;28;20033;-73
2021/08/10 06:32:04;;;;;;;7.85;3.72;;;17.00;99.90;;;;;;4167731;28;20111;-73
2021/08/10 06:34:05;;;;;;;7.38;3.45;;;17.10;99.90;;;;;;4139706;28;20037;-73
2021/08/10 06:36:05;;;;;;;5.53;3.15;;;17.20;99.90;;;;;;4141640;28;20160;-73
2021/08/10 06:38:06;;;;;;;6.07;3.15;;;17.40;99.90;;;;;;4142834;28;20091;-73
2021/08/10 06:40:07;;;;;;;4.20;2.95;;;17.60;99.90;;;;;;4142605;28;20610;-73
2021/08/10 06:42:08;;;;;;;6.00;3.35;;;17.80;99.90;;;;;;4142265;28;20509;-73
2021/08/10 06:44:08;;;;;;;6.93;3.60;;;18.00;99.90;;;;;;4141081;28;20030;-73
2021/08/10 06:46:09;;;;;;;5.60;3.25;;;18.00;99.90;;;;;;4142455;28;20418;-73
2021/08/10 06:48:10;;;;;;;5.25;3.08;;;18.10;99.90;;;;;;4140931;28;20140;-73
2021/08/10 06:50:10;;;;;;;4.72;3.10;;;18.00;99.90;;;;;;4141846;28;20403;-73
2021/08/10 06:52:11;;;;;;;5.35;2.95;;;18.10;99.90;;;;;;4142353;28;20125;-73
2021/08/10 06:54:12;;;;;;;4.55;2.63;;;18.10;99.90;;;;;;4142654;28;20108;-73
2021/08/10 06:56:12;;;;;;;5.93;3.25;;;18.00;99.90;;;;;;4142174;28;20486;-73
2021/08/10 06:58:13;;;;;;;5.57;2.83;;;18.10;99.90;;;;;;4142555;28;20570;-73
2021/08/10 07:00:14;;;;;;;6.32;3.15;;;18.10;99.90;;;;;;4142027;28;20036;-73
2021/08/10 07:02:14;;;;;;;5.22;2.90;;;18.00;99.90;;;;;;4140361;28;20049;-73
2021/08/10 07:04:15;;;;;;;5.10;3.08;;;18.00;99.90;;;;;;4141865;28;20037;-73
2021/08/10 07:06:15;;;;;;;6.75;3.38;;;18.10;99.90;;;;;;4140921;28;20394;-73
2021/08/10 07:08:16;;;;;;;4.53;3.17;;;18.10;99.90;;;;;;4140203;28;20029;-73
2021/08/10 07:10:18;;;;;;;5.40;2.78;;;18.10;99.90;;;;;;4142693;28;20145;-73
2021/08/10 07:12:18;;;;;;;4.30;2.75;;;18.10;99.90;;;;;;4141572;28;20030;-73
2021/08/10 07:14:19;;;;;;;6.82;2.58;;;18.00;99.90;;;;;;4139809;28;20038;-73
2021/08/10 07:16:20;;;;;;;4.97;2.95;;;18.00;99.90;;;;;;4139670;28;20037;-73
2021/08/10 07:18:20;;;;;;;3.38;2.10;;;18.00;99.90;;;;;;4140390;28;20135;-73
2021/08/10 07:20:21;;;;;;;4.70;2.78;;;18.10;99.90;;;;;;4140406;28;20033;-73
2021/08/10 07:22:21;;;;;;;5.72;2.85;;;18.00;99.90;;;;;;4141440;28;20030;-72
2021/08/10 07:24:22;;;;;;;4.93;2.30;;;18.10;99.90;;;;;;4139980;28;20401;-71
2021/08/10 07:26:24;;;;;;;4.20;2.58;;;18.10;99.90;;;;;;4142156;28;20398;-71
2021/08/10 07:28:24;;;;;;;3.03;2.22;;;18.20;99.90;;;;;;4141053;28;20034;-71
2021/08/10 07:30:25;;;;;;;3.45;2.38;;;18.10;99.90;;;;;;4142039;28;20407;-71
2021/08/10 07:32:25;;;;;;;4.03;2.47;;;18.20;99.90;;;;;;4142070;28;20050;-71
2021/08/10 07:34:26;;;;;;;3.97;2.55;;;18.20;99.90;;;;;;4142076;28;20053;-71
2021/08/10 07:36:27;;;;;;;4.55;2.67;;;18.20;99.90;;;;;;4140308;28;20030;-72
2021/08/10 07:38:28;;;;;;;5.30;2.60;;;18.30;99.90;;;;;;4141971;28;20045;-73
2021/08/10 07:40:28;;;;;;;3.90;2.55;;;18.20;99.90;;;;;;4139368;28;20105;-73
2021/08/10 07:42:29;;;;;;;6.43;2.67;;;18.30;99.90;;;;;;4141911;28;20041;-73
2021/08/10 07:44:29;;;;;;;4.50;2.53;;;18.30;99.90;;;;;;4140491;28;20357;-73
2021/08/10 07:46:30;;;;;;;4.03;2.33;;;18.30;99.90;;;;;;4140704;28;20026;-74
2021/08/10 07:48:31;;;;;;;4.43;2.60;;;18.30;99.90;;;;;;4139910;28;20037;-71
2021/08/10 07:50:32;;;;;;;3.33;2.40;;;18.30;99.90;;;;;;4142204;28;20384;-72
2021/08/10 07:52:33;;;;;;;5.28;2.55;;;18.40;99.90;;;;;;4140870;28;20117;-72
2021/08/10 07:54:33;;;;;;;4.22;2.60;;;18.40;99.90;;;;;;4138396;28;20551;-72
2021/08/10 07:56:34;;;;;;;4.30;2.30;;;18.50;99.90;;;;;;4139299;28;20047;-71
2021/08/10 07:58:34;;;;;;;3.65;2.28;;;18.60;99.90;;;;;;4139927;28;20038;-72
2021/08/10 08:00:35;;;;;;;5.72;2.92;;;18.60;99.90;;;;;;4141381;28;20422;-73
2021/08/10 08:02:35;;;;;;;3.40;2.40;;;18.60;99.90;;;;;;4141465;28;20121;-73
2021/08/10 08:04:36;;;;;;;4.38;2.80;;;18.60;99.90;;;;;;4139674;28;20057;-74
2021/08/10 08:06:37;;;;;;;5.20;2.60;;;18.60;99.90;;;;;;4141448;28;20034;-74
2021/08/10 08:08:39;;;;;;;5.78;2.85;;;18.60;99.90;;;;;;4138416;28;20033;-74
2021/08/10 08:10:39;;;;;;;4.90;2.60;;;18.50;99.90;;;;;;4141418;28;20552;-74
2021/08/10 08:12:40;;;;;;;3.60;2.10;;;18.60;99.90;;;;;;4176502;28;20056;-73
2021/08/10 08:14:43;;;;;;;5.40;2.95;;;18.50;99.90;;;;;;4156641;28;20045;-74
2021/08/10 08:16:43;;;;;;;3.20;2.40;;;18.50;99.90;;;;;;4157440;28;20085;-74
2021/08/10 08:18:44;;;;;;;5.70;2.92;;;18.60;99.90;;;;;;4145556;28;20038;-73
2021/08/10 08:20:46;;;;;;;6.47;2.53;;;18.50;99.90;;;;;;4140682;28;20474;-73
2021/08/10 08:22:47;;;;;;;4.22;2.70;;;18.50;99.90;;;;;;4148904;28;20091;-73
2021/08/10 08:24:47;;;;;;;4.28;2.58;;;18.50;99.90;;;;;;4145838;28;20033;-74
2021/08/10 08:26:48;;;;;;;5.68;2.80;;;18.50;99.90;;;;;;4152795;28;20186;-74
2021/08/10 08:28:49;;;;;;;5.85;3.33;;;18.60;99.90;;;;;;4158045;28;20039;-74
2021/08/10 08:30:49;;;;;;;3.42;2.47;;;18.60;99.90;;;;;;4155898;28;20037;-74
2021/08/10 08:32:50;;;;;;;5.00;2.80;;;18.60;99.90;;;;;;4157398;28;20120;-74
2021/08/10 08:34:50;;;;;;;6.68;3.17;;;18.60;99.90;;;;;;4147912;28;20062;-74
2021/08/10 08:36:51;;;;;;;4.95;2.70;;;18.70;99.90;;;;;;4139151;28;20560;-74
2021/08/10 08:38:52;;;;;;;4.65;3.05;;;18.70;99.90;;;;;;4139017;28;20105;-74
2021/08/10 08:40:53;;;;;;;6.47;3.55;;;18.70;99.90;;;;;;4139633;28;20422;-73
2021/08/10 08:42:53;;;;;;;8.55;3.47;;;18.70;99.90;;;;;;4140589;28;20037;-74
2021/08/10 08:44:54;;;;;;;4.93;2.60;;;18.80;99.90;;;;;;4141939;28;20100;-74
2021/08/10 08:46:55;;;;;;;3.67;2.83;;;18.70;99.90;;;;;;4142382;28;20057;-74
2021/08/10 08:48:58;;;;;;;8.98;3.30;;;18.80;99.90;;;;;;4144090;28;20030;-74
2021/08/10 08:51:01;;;;;;;5.00;3.30;;;18.80;99.90;;;;;;4143261;28;20026;-74
2021/08/10 08:53:04;;;;;;;4.90;2.47;;;18.70;99.90;;;;;;4143653;28;20049;-73
2021/08/10 08:55:05;;;;;;;6.45;2.75;;;18.80;99.90;;;;;;4144382;28;20070;-72
2021/08/10 08:57:05;;;;;;;3.72;2.67;;;18.80;99.90;;;;;;4144620;28;20481;-72
2021/08/10 08:59:06;;;;;;;5.78;2.80;;;18.80;99.90;;;;;;4144254;28;20304;-71
2021/08/10 09:01:08;;;;;;;3.75;2.65;;;18.80;99.90;;;;;;4141166;28;20223;-72
2021/08/10 09:03:08;;;;;;;6.30;2.88;;;18.90;99.90;;;;;;4143689;28;20169;-72
2021/08/10 09:05:09;;;;;;;6.13;2.63;;;18.90;99.90;;;;;;4137763;28;20068;-72
2021/08/10 09:07:10;;;;;;;4.07;2.47;;;18.90;99.90;;;;;;4138855;28;20079;-71
2021/08/10 09:09:26;;;;;;;4.75;2.38;;;19.00;99.90;;;;;;4138049;28;20034;-72
2021/08/10 09:11:26;;;;;;;4.38;2.60;;;19.00;99.90;;;;;;4139984;28;20057;-71
2021/08/10 09:13:27;;;;;;;5.25;2.88;;;19.10;99.90;;;;;;4139659;28;20034;-72
2021/08/10 09:15:38;;;;;;;5.93;2.55;;;19.10;99.90;;;;;;4136142;28;20034;-72
2021/08/10 09:17:47;;;;;;;4.07;2.60;;;19.20;99.90;;;;;;4142000;28;20033;-72
2021/08/10 09:19:50;;;;;;;4.63;2.88;;;19.20;99.90;;;;;;4140089;28;20426;-72
2021/08/10 09:21:51;;;;;;;5.70;3.00;;;19.20;99.90;;;;;;4142498;28;20241;-73
2021/08/10 09:23:54;;;;;;;5.50;2.95;;;19.20;99.90;;;;;;4144218;28;20433;-73
2021/08/10 09:25:55;;;;;;;6.60;3.05;;;19.20;99.90;;;;;;4142834;28;20042;-74
2021/08/10 09:28:07;;;;;;;5.32;3.00;;;19.20;99.90;;;;;;4144399;28;20490;-73
2021/08/10 09:30:11;;;;;;;7.65;3.80;;;19.20;99.90;;;;;;4141779;28;20042;-73
2021/08/10 09:32:12;;;;;;;5.72;3.40;;;19.20;99.90;;;;;;4143472;28;20041;-73
2021/08/10 09:34:15;;;;;;;5.75;2.72;;;19.20;99.90;;;;;;4141595;28;20483;-73
2021/08/10 09:36:22;;;;;;;5.35;3.00;;;19.20;99.90;;;;;;4142147;28;20447;-73
2021/08/10 09:38:23;;;;;;;5.30;3.20;;;19.30;99.90;;;;;;4142507;28;20088;-73
2021/08/10 09:40:33;;;;;;;7.20;3.22;;;19.30;99.90;;;;;;4140323;28;20046;-73
2021/08/10 09:42:34;;;;;;;6.50;3.20;;;19.30;99.90;;;;;;4141269;28;20120;-74
2021/08/10 09:44:36;;;;;;;6.30;3.10;;;19.30;99.90;;;;;;4143164;28;20525;-73
2021/08/10 09:46:44;;;;;;;5.18;2.90;;;19.40;99.90;;;;;;4142974;28;20034;-73
2021/08/10 09:48:56;;;;;;;8.82;3.25;;;19.40;99.90;;;;;;4143208;28;20048;-73
2021/08/10 09:51:06;;;;;;;5.57;3.53;;;19.50;99.90;;;;;;4141765;28;20495;-73
2021/08/10 09:53:18;;;;;;;3.60;2.60;;;19.50;99.90;;;;;;4143173;28;20423;-74
2021/08/10 09:55:19;;;;;;;4.40;2.88;;;19.60;99.90;;;;;;4139596;28;20033;-73
2021/08/10 09:57:19;;;;;;;5.22;2.97;;;19.70;99.90;;;;;;4140956;28;20423;-74
2021/08/10 09:59:22;;;;;;;3.65;2.40;;;19.80;99.90;;;;;;4141609;28;20030;-73
2021/08/10 10:01:29;;;;;;;;;;;19.90;99.90;;;;;;4143021;28;20041;-73
2021/08/10 10:03:29;;;;;;;5.22;2.70;;;20.00;99.90;;;;;;4139140;28;19996;-74
2021/08/10 10:05:44;;;;;;;5.05;2.58;;;20.10;99.90;;;;;;4142684;28;20038;-74
2021/08/10 10:08:14;;;;;;;5.00;2.55;;;20.20;99.90;;;;;;4142672;28;20072;-74
2021/08/10 10:10:14;;;;;;;3.72;2.63;;;20.30;99.90;;;;;;4138232;28;20132;-74
2021/08/10 10:12:19;;;;;;;7.10;3.47;;;20.50;99.90;;;;;;4138151;28;20037;-74
2021/08/10 10:14:25;;;;;;;5.68;2.95;;;20.50;99.90;;;;;;4142212;28;20347;-74
2021/08/10 10:16:27;;;;;;;6.82;3.15;;;20.60;99.90;;;;;;4139300;28;20390;-74
2021/08/10 10:18:29;;;;;;;7.53;3.83;;;20.70;99.90;;;;;;4136624;28;20034;-74
2021/08/10 10:20:30;;;;;;;7.97;3.90;;;20.80;99.90;;;;;;4142344;28;20033;-74
2021/08/10 10:22:32;;;;;;;8.50;3.35;;;20.90;99.90;;;;;;4137945;28;20474;-71
2021/08/10 10:24:39;;;;;;;6.13;3.05;;;20.90;99.90;;;;;;4136608;28;20164;-71
2021/08/10 10:26:46;;;;;;;6.22;3.72;;;21.00;99.90;;;;;;4142715;28;20367;-71
2021/08/10 10:28:47;;;;;;;5.55;3.03;;;21.00;99.90;;;;;;4169081;28;20045;-71
2021/08/10 10:30:49;;;;;;;6.05;3.30;;;21.00;99.90;;;;;;4153098;28;20058;-71
2021/08/10 10:32:50;;;;;;;4.82;3.30;;;21.00;99.90;;;;;;4142678;28;20034;-72
2021/08/10 10:34:51;;;;;;;7.18;3.50;;;21.00;99.90;;;;;;4150353;28;20041;-71
2021/08/10 10:36:52;;;;;;;4.65;2.80;;;21.00;99.90;;;;;;4142555;28;20041;-71
2021/08/10 10:38:55;;;;;;;7.20;3.55;;;21.00;99.90;;;;;;4146210;28;20033;-71